Terminal Aerodrome Forecast
Issued by NWS

Current Version | Previous Version | Graphics & Text | Print | Product List | Glossary On
Versions: 1 2 3 4 5 6 7 8 9 10 11 12 13 14 15 16 17 18 19 20
890
FTUS41 KRLX 161753 RRA
TAFCKB
TAF
KCKB 161753Z 1618/1718 29010G20KT P6SM BKN045
     FM162300 29003KT P6SM SCT200
     FM170300 00000KT P6SM BKN110
     FM171400 20004KT P6SM SCT030=

USA.gov is the U.S. government's official web portal to all federal, state and local government web resources and services.